createdAt,value
2024-01-16T00:02:14.986Z,5.35
2024-01-16T00:04:43.382Z,8.15
2024-01-16T00:07:11.401Z,5.62
2024-01-16T00:09:39.512Z,5.32
2024-01-16T00:12:08.069Z,4.53
2024-01-16T00:14:39.513Z,5.65
2024-01-16T00:17:07.891Z,5.12
2024-01-16T00:19:35.929Z,5.75
2024-01-16T00:22:05.444Z,6.43
2024-01-16T00:24:33.673Z,4.30
2024-01-16T00:27:01.604Z,4.18
2024-01-16T00:29:29.585Z,6.72
2024-01-16T00:31:57.562Z,6.05
2024-01-16T00:34:25.608Z,6.60
2024-01-16T00:36:53.584Z,7.82
2024-01-16T00:39:21.509Z,5.95
2024-01-16T00:41:50.002Z,7.00
2024-01-16T00:44:18.097Z,6.25
2024-01-16T00:46:46.186Z,5.55
2024-01-16T00:49:14.741Z,6.18
2024-01-16T00:51:43.109Z,6.45
2024-01-16T00:54:11.070Z,7.78
2024-01-16T00:56:39.160Z,5.80
2024-01-16T00:59:07.136Z,4.75
2024-01-16T01:01:35.169Z,5.10
2024-01-16T01:04:03.188Z,5.30
2024-01-16T01:06:31.199Z,7.22
2024-01-16T01:08:59.261Z,4.35
2024-01-16T01:11:27.289Z,6.20
2024-01-16T01:13:55.957Z,5.05
2024-01-16T01:16:23.938Z,4.43
2024-01-16T01:18:52.179Z,5.60
2024-01-16T01:21:20.240Z,7.62
2024-01-16T01:23:48.219Z,5.82
2024-01-16T01:26:16.512Z,5.22
2024-01-16T01:28:44.530Z,5.97
2024-01-16T01:31:15.682Z,5.60
2024-01-16T01:33:43.836Z,4.90
2024-01-16T01:36:12.436Z,3.92
2024-01-16T01:38:40.909Z,5.05
2024-01-16T01:41:09.038Z,4.97
2024-01-16T01:43:36.991Z,6.40
2024-01-16T01:46:14.563Z,5.85
2024-01-16T01:48:44.169Z,4.68
2024-01-16T01:51:16.776Z,6.35
2024-01-16T01:53:47.033Z,5.30
2024-01-16T01:56:18.320Z,4.78
2024-01-16T01:58:49.206Z,9.68
2024-01-16T02:01:20.190Z,6.18
2024-01-16T02:03:52.666Z,6.07
2024-01-16T02:06:20.803Z,5.93
2024-01-16T02:08:49.071Z,5.35
2024-01-16T02:11:17.566Z,8.43
2024-01-16T02:13:45.586Z,4.68
2024-01-16T02:16:23.662Z,5.87
2024-01-16T02:18:52.445Z,7.40
2024-01-16T02:21:24.105Z,7.90
2024-01-16T02:23:52.198Z,6.22
2024-01-16T02:26:21.295Z,6.55
2024-01-16T02:28:49.566Z,5.90
2024-01-16T02:31:17.581Z,7.10
2024-01-16T02:33:46.016Z,5.80
2024-01-16T02:36:14.078Z,5.12
2024-01-16T02:38:44.474Z,6.90
2024-01-16T02:41:16.109Z,6.80
2024-01-16T02:43:44.571Z,6.20
2024-01-16T02:46:12.563Z,6.85
2024-01-16T02:48:40.612Z,8.02
2024-01-16T02:51:08.592Z,7.85
2024-01-16T02:53:36.759Z,6.47
2024-01-16T02:56:04.912Z,8.27
2024-01-16T02:58:33.204Z,6.18
2024-01-16T03:01:01.195Z,5.00
2024-01-16T03:03:29.690Z,5.75
2024-01-16T03:05:58.706Z,8.63
2024-01-16T03:08:26.857Z,7.45
2024-01-16T03:10:55.063Z,8.80
2024-01-16T03:13:23.096Z,6.22
2024-01-16T03:15:51.031Z,6.15
2024-01-16T03:18:19.702Z,6.47
2024-01-16T03:20:47.770Z,6.00
2024-01-16T03:23:16.248Z,8.40
2024-01-16T03:25:45.086Z,6.10
2024-01-16T03:28:13.145Z,7.10
2024-01-16T03:30:41.189Z,7.40
2024-01-16T03:33:09.419Z,6.43
2024-01-16T03:35:37.550Z,7.00
2024-01-16T03:38:06.071Z,7.10
2024-01-16T03:40:36.630Z,5.90
2024-01-16T03:43:04.904Z,5.35
2024-01-16T03:45:32.999Z,7.82
2024-01-16T03:48:01.301Z,8.75
2024-01-16T03:50:29.439Z,7.20
2024-01-16T03:52:57.347Z,7.25
2024-01-16T03:55:25.369Z,6.12
2024-01-16T03:57:53.536Z,5.93
2024-01-16T04:00:21.583Z,5.72
2024-01-16T04:02:49.727Z,6.47
2024-01-16T04:05:17.961Z,5.72
2024-01-16T04:07:45.866Z,5.90
2024-01-16T04:10:13.966Z,5.28
2024-01-16T04:12:42.009Z,6.18
2024-01-16T04:15:10.331Z,6.35
2024-01-16T04:17:38.287Z,5.15
2024-01-16T04:20:09.379Z,7.55
2024-01-16T04:22:37.995Z,7.78
2024-01-16T04:25:07.364Z,4.87
2024-01-16T04:27:35.368Z,6.00
2024-01-16T04:30:03.529Z,6.20
2024-01-16T04:32:31.668Z,4.85
2024-01-16T04:34:59.774Z,4.55
2024-01-16T04:37:28.075Z,3.65
2024-01-16T04:39:56.630Z,4.97
2024-01-16T04:42:24.534Z,4.43
2024-01-16T04:44:52.520Z,6.40
2024-01-16T04:47:20.842Z,4.60
2024-01-16T04:49:48.860Z,5.05
2024-01-16T04:52:16.885Z,3.33
2024-01-16T04:54:44.857Z,5.40
2024-01-16T04:57:12.749Z,4.70
2024-01-16T04:59:40.730Z,6.65
2024-01-16T05:02:15.581Z,7.12
2024-01-16T05:04:43.595Z,4.93
2024-01-16T05:07:11.537Z,5.03
2024-01-16T05:09:39.460Z,6.35
2024-01-16T05:12:08.783Z,5.57
2024-01-16T05:14:36.734Z,4.60
2024-01-16T05:17:05.186Z,5.22
2024-01-16T05:19:33.261Z,6.05
2024-01-16T05:22:01.233Z,5.15
2024-01-16T05:24:29.099Z,3.10
2024-01-16T05:26:57.037Z,5.82
2024-01-16T05:29:25.118Z,3.55
2024-01-16T05:31:53.189Z,5.37
2024-01-16T05:34:24.251Z,3.67
2024-01-16T05:36:52.357Z,4.03
2024-01-16T05:39:20.287Z,4.62
2024-01-16T05:41:48.311Z,4.43
2024-01-16T05:44:16.390Z,3.20
2024-01-16T05:46:45.041Z,7.05
2024-01-16T05:49:13.104Z,2.83
2024-01-16T05:51:41.079Z,2.50
2024-01-16T05:54:09.412Z,3.00
2024-01-16T05:56:37.432Z,4.45
2024-01-16T05:59:05.392Z,3.58
2024-01-16T06:01:33.276Z,3.22
2024-01-16T06:04:02.401Z,3.35
2024-01-16T06:06:30.422Z,5.65
2024-01-16T06:08:59.734Z,5.10
2024-01-16T06:11:40.724Z,4.97
2024-01-16T06:14:12.065Z,4.95
2024-01-16T06:16:40.191Z,3.72
2024-01-16T06:19:08.284Z,4.65
2024-01-16T06:21:36.454Z,4.65
2024-01-16T06:24:04.499Z,3.62
2024-01-16T06:26:35.221Z,5.40
2024-01-16T06:29:03.116Z,5.90
2024-01-16T06:31:31.046Z,5.18
2024-01-16T06:33:59.168Z,4.62
2024-01-16T06:36:27.194Z,4.65
2024-01-16T06:38:55.249Z,5.22
2024-01-16T06:41:23.590Z,5.75
2024-01-16T06:43:51.663Z,3.53
2024-01-16T06:46:19.639Z,3.62
2024-01-16T06:48:47.711Z,3.22
2024-01-16T06:51:16.655Z,4.40
2024-01-16T06:53:44.739Z,4.15
2024-01-16T06:56:23.077Z,7.07
2024-01-16T06:58:51.090Z,5.43
2024-01-16T07:01:19.095Z,4.70
2024-01-16T07:03:47.100Z,6.10
2024-01-16T07:06:15.212Z,2.83
2024-01-16T07:08:43.344Z,3.92
2024-01-16T07:11:15.305Z,4.70
2024-01-16T07:13:43.991Z,4.95
2024-01-16T07:16:13.377Z,5.80
2024-01-16T07:18:44.338Z,4.25
2024-01-16T07:21:23.778Z,5.75
2024-01-16T07:23:51.908Z,6.30
2024-01-16T07:26:19.976Z,4.03
2024-01-16T07:28:50.286Z,6.50
2024-01-16T07:31:21.017Z,6.85
2024-01-16T07:33:49.298Z,6.12
2024-01-16T07:36:17.521Z,6.95
2024-01-16T07:38:45.629Z,5.35
2024-01-16T07:41:13.796Z,5.78
2024-01-16T07:43:42.216Z,5.30
2024-01-16T07:46:10.170Z,6.57
2024-01-16T07:48:38.210Z,7.05
2024-01-16T07:51:06.408Z,5.60
2024-01-16T07:53:34.499Z,7.93
2024-01-16T07:56:02.473Z,8.63
2024-01-16T07:58:30.869Z,6.60
2024-01-16T08:00:58.859Z,4.80
2024-01-16T08:03:26.822Z,4.43
2024-01-16T08:05:54.884Z,5.97
2024-01-16T08:08:23.000Z,5.50
2024-01-16T08:10:51.100Z,7.32
2024-01-16T08:13:19.038Z,6.25
2024-01-16T08:15:46.952Z,10.07
2024-01-16T08:18:14.990Z,11.27
2024-01-16T08:20:44.197Z,9.82
2024-01-16T08:23:12.153Z,10.15
2024-01-16T08:25:40.724Z,8.93
2024-01-16T08:28:08.769Z,6.87
2024-01-16T08:30:36.952Z,8.30
2024-01-16T08:33:05.581Z,8.88
2024-01-16T08:35:33.715Z,6.55
2024-01-16T08:38:01.890Z,6.82
2024-01-16T08:40:29.814Z,6.22
2024-01-16T08:42:58.260Z,5.65
2024-01-16T08:45:27.421Z,5.65
2024-01-16T08:47:56.166Z,4.70
2024-01-16T08:50:24.251Z,8.02
2024-01-16T08:52:52.908Z,5.75
2024-01-16T08:55:20.992Z,7.80
2024-01-16T08:57:48.915Z,5.25
2024-01-16T09:00:17.877Z,8.48
2024-01-16T09:02:46.299Z,4.90
2024-01-16T09:05:15.704Z,9.38
2024-01-16T09:07:43.735Z,5.93
2024-01-16T09:10:12.061Z,7.40
2024-01-16T09:12:40.052Z,8.85
2024-01-16T09:15:08.906Z,6.93
2024-01-16T09:17:37.024Z,6.72
2024-01-16T09:20:05.440Z,8.77
2024-01-16T09:22:33.394Z,6.87
2024-01-16T09:25:01.445Z,8.65
2024-01-16T09:27:29.453Z,6.07
2024-01-16T09:29:57.580Z,4.72
2024-01-16T09:32:25.887Z,9.70
2024-01-16T09:34:54.048Z,4.47
2024-01-16T09:37:22.034Z,5.30
2024-01-16T09:39:49.987Z,6.22
2024-01-16T09:42:18.900Z,6.43
2024-01-16T09:44:51.172Z,5.40
2024-01-16T09:47:20.323Z,7.35
2024-01-16T09:49:49.757Z,6.62
2024-01-16T09:52:17.862Z,6.03
2024-01-16T09:54:45.831Z,6.60
2024-01-16T09:57:16.351Z,5.15
2024-01-16T09:59:45.411Z,6.93
2024-01-16T10:02:15.727Z,4.35
2024-01-16T10:04:47.065Z,5.87
2024-01-16T10:07:16.863Z,4.82
2024-01-16T10:09:46.194Z,4.72
2024-01-16T10:12:14.326Z,7.15
2024-01-16T10:14:45.937Z,6.15
2024-01-16T10:17:18.329Z,8.23
2024-01-16T10:19:54.989Z,7.05
2024-01-16T10:22:27.837Z,6.32
2024-01-16T10:25:08.437Z,6.30
2024-01-16T10:27:37.568Z,5.97
2024-01-16T10:30:06.674Z,6.57
2024-01-16T10:32:37.652Z,7.82
2024-01-16T10:35:07.092Z,7.68
2024-01-16T10:37:50.891Z,8.55
2024-01-16T10:40:26.294Z,6.22
2024-01-16T10:43:01.039Z,4.80
2024-01-16T10:45:29.520Z,6.87
2024-01-16T10:48:23.666Z,5.87
2024-01-16T10:50:54.073Z,5.20
2024-01-16T10:53:24.776Z,6.75
2024-01-16T10:55:54.024Z,7.25
2024-01-16T10:58:26.680Z,6.47
2024-01-16T11:00:56.096Z,6.80
2024-01-16T11:03:34.752Z,7.28
2024-01-16T11:06:04.315Z,7.03
2024-01-16T11:08:35.050Z,7.43
2024-01-16T11:11:05.895Z,6.55
2024-01-16T11:13:36.507Z,7.72
2024-01-16T11:16:09.479Z,6.82
2024-01-16T11:18:37.772Z,6.28
2024-01-16T11:21:16.396Z,5.62
2024-01-16T11:23:48.619Z,6.15
2024-01-16T11:26:31.418Z,6.15
2024-01-16T11:28:59.449Z,5.45
2024-01-16T11:31:35.882Z,6.47
2024-01-16T11:34:05.537Z,5.12
2024-01-16T11:36:49.418Z,7.40
2024-01-16T11:39:22.175Z,5.68
2024-01-16T11:41:52.087Z,9.55
2024-01-16T11:44:38.474Z,5.85
2024-01-16T11:47:07.253Z,5.18
2024-01-16T11:49:35.493Z,8.27
2024-01-16T11:52:03.587Z,5.53
2024-01-16T11:54:31.551Z,6.10
2024-01-16T11:57:29.717Z,5.22
2024-01-16T12:00:14.899Z,5.82
2024-01-16T12:02:59.711Z,8.57
2024-01-16T12:05:28.808Z,8.23
2024-01-16T12:07:57.354Z,8.75
2024-01-16T12:10:26.717Z,5.30
2024-01-16T12:13:03.972Z,7.97
2024-01-16T12:15:34.070Z,7.90
2024-01-16T12:18:03.742Z,5.45
2024-01-16T12:20:37.163Z,6.30
2024-01-16T12:23:12.250Z,6.37
2024-01-16T12:26:01.289Z,5.82
2024-01-16T12:28:32.953Z,7.07
2024-01-16T12:31:03.058Z,5.72
2024-01-16T12:33:31.516Z,6.28
2024-01-16T12:36:07.277Z,6.15
2024-01-16T12:38:35.588Z,5.18
2024-01-16T12:41:10.813Z,6.37
2024-01-16T12:43:42.355Z,7.35
2024-01-16T12:46:14.067Z,6.57
2024-01-16T12:48:52.931Z,5.12
2024-01-16T12:51:25.636Z,7.95
2024-01-16T12:53:53.638Z,5.82
2024-01-16T12:56:34.838Z,6.00
2024-01-16T12:59:16.081Z,7.82
2024-01-16T13:01:46.562Z,4.65
2024-01-16T13:04:17.827Z,4.93
2024-01-16T13:06:50.379Z,7.35
2024-01-16T13:09:18.770Z,5.78
2024-01-16T13:11:57.725Z,8.18
2024-01-16T13:14:26.133Z,5.95
2024-01-16T13:16:57.986Z,6.85
2024-01-16T13:19:26.579Z,7.30
2024-01-16T13:21:54.826Z,5.68
2024-01-16T13:24:25.825Z,8.30
2024-01-16T13:26:54.483Z,5.10
2024-01-16T13:29:22.561Z,9.32
2024-01-16T13:31:50.943Z,5.45
2024-01-16T13:34:21.518Z,9.05
2024-01-16T13:37:08.541Z,6.72
2024-01-16T13:39:41.526Z,7.90
2024-01-16T13:42:09.659Z,5.07
2024-01-16T13:44:37.730Z,6.70
2024-01-16T13:47:10.249Z,4.12
2024-01-16T13:49:42.921Z,5.20
2024-01-16T13:52:10.998Z,4.97
2024-01-16T13:54:41.387Z,5.25
2024-01-16T13:57:10.838Z,3.70
2024-01-16T13:59:41.624Z,6.45
2024-01-16T14:02:10.883Z,7.50
2024-01-16T14:04:39.036Z,6.35
2024-01-16T14:07:12.664Z,6.12
2024-01-16T14:09:46.659Z,6.93
2024-01-16T14:12:15.899Z,6.32
2024-01-16T14:14:44.648Z,5.60
2024-01-16T14:17:13.596Z,7.25
2024-01-16T14:19:41.959Z,4.75
2024-01-16T14:22:10.013Z,4.65
2024-01-16T14:24:39.925Z,5.47
2024-01-16T14:27:08.067Z,6.28
2024-01-16T14:29:39.005Z,5.75
2024-01-16T14:32:08.144Z,5.37
2024-01-16T14:34:36.255Z,7.55
2024-01-16T14:37:04.468Z,5.93
2024-01-16T14:39:33.478Z,8.07
2024-01-16T14:42:01.654Z,8.20
2024-01-16T14:44:29.833Z,6.07
2024-01-16T14:46:57.903Z,6.28
2024-01-16T14:49:26.261Z,5.93
2024-01-16T14:51:54.304Z,8.93
2024-01-16T14:54:22.364Z,7.87
2024-01-16T14:56:51.225Z,7.32
2024-01-16T14:59:19.524Z,5.68
2024-01-16T15:01:47.645Z,9.10
2024-01-16T15:04:15.724Z,4.93
2024-01-16T15:06:44.253Z,6.40
2024-01-16T15:09:14.574Z,6.97
2024-01-16T15:11:44.069Z,5.43
2024-01-16T15:14:16.450Z,7.53
2024-01-16T15:16:44.847Z,5.93
2024-01-16T15:19:12.897Z,9.27
2024-01-16T15:21:41.884Z,5.60
2024-01-16T15:24:09.981Z,6.03
2024-01-16T15:26:38.779Z,10.63
2024-01-16T15:29:08.786Z,7.65
2024-01-16T15:31:36.759Z,7.80
2024-01-16T15:34:04.739Z,7.10
2024-01-16T15:36:32.755Z,5.62
2024-01-16T15:39:00.826Z,7.78
2024-01-16T15:41:30.006Z,4.95
2024-01-16T15:43:58.296Z,6.25
2024-01-16T15:46:27.907Z,4.43
2024-01-16T15:48:58.766Z,6.18
2024-01-16T15:51:26.765Z,5.32
2024-01-16T15:53:57.888Z,7.30
2024-01-16T15:56:26.900Z,7.72
2024-01-16T15:58:54.850Z,10.43
2024-01-16T16:01:22.839Z,9.40
2024-01-16T16:03:50.932Z,10.35
2024-01-16T16:06:21.553Z,8.75
2024-01-16T16:08:49.632Z,10.10
2024-01-16T16:11:18.359Z,6.70
2024-01-16T16:13:46.363Z,6.28
2024-01-16T16:16:14.332Z,9.02
2024-01-16T16:18:42.669Z,5.80
2024-01-16T16:21:11.081Z,10.60
2024-01-16T16:23:39.101Z,7.03
2024-01-16T16:26:07.925Z,9.70
2024-01-16T16:28:35.872Z,6.00
2024-01-16T16:31:03.809Z,9.55
2024-01-16T16:33:31.971Z,6.75
2024-01-16T16:36:00.156Z,8.25
2024-01-16T16:38:29.360Z,8.70
2024-01-16T16:40:57.663Z,7.80
2024-01-16T16:43:25.579Z,7.70
2024-01-16T16:45:53.601Z,8.02
2024-01-16T16:48:21.621Z,7.70
2024-01-16T16:50:49.828Z,8.38
2024-01-16T16:53:17.833Z,8.23
2024-01-16T16:55:48.786Z,11.90
2024-01-16T16:58:17.005Z,10.55
2024-01-16T17:00:45.693Z,10.77
2024-01-16T17:03:13.708Z,10.45
2024-01-16T17:05:41.934Z,11.25
2024-01-16T17:08:11.246Z,11.60
2024-01-16T17:10:44.426Z,9.27
2024-01-16T17:13:12.326Z,10.77
2024-01-16T17:15:40.300Z,10.18
2024-01-16T17:18:10.434Z,8.93
2024-01-16T17:20:38.612Z,12.10
2024-01-16T17:23:06.628Z,9.98
2024-01-16T17:25:35.168Z,10.73
2024-01-16T17:28:03.065Z,15.93
2024-01-16T17:30:31.075Z,13.10
2024-01-16T17:32:59.243Z,13.15
2024-01-16T17:35:28.448Z,15.90
2024-01-16T17:37:56.410Z,11.73
2024-01-16T17:40:24.440Z,10.57
2024-01-16T17:42:52.565Z,12.82
2024-01-16T17:45:20.688Z,12.48
2024-01-16T17:47:51.603Z,9.55
2024-01-16T17:50:19.668Z,9.68
2024-01-16T17:52:50.664Z,13.15
2024-01-16T17:55:19.582Z,12.57
2024-01-16T17:57:48.789Z,10.13
2024-01-16T18:00:19.703Z,11.40
2024-01-16T18:02:49.548Z,11.98
2024-01-16T18:05:21.041Z,12.35
2024-01-16T18:07:49.091Z,18.50
2024-01-16T18:10:21.533Z,9.93
2024-01-16T18:12:49.642Z,10.48
2024-01-16T18:15:17.803Z,12.02
2024-01-16T18:17:48.205Z,13.18
2024-01-16T18:20:21.660Z,12.05
2024-01-16T18:22:50.506Z,10.75
2024-01-16T18:25:18.749Z,10.80
2024-01-16T18:27:46.955Z,12.35
2024-01-16T18:30:17.456Z,14.82
2024-01-16T18:32:46.000Z,12.98
2024-01-16T18:35:15.232Z,15.27
2024-01-16T18:37:43.200Z,15.27
2024-01-16T18:40:16.965Z,9.80
2024-01-16T18:42:47.988Z,10.40
2024-01-16T18:45:18.207Z,15.68
2024-01-16T18:47:47.250Z,10.18
2024-01-16T18:50:15.834Z,16.62
2024-01-16T18:52:45.463Z,16.55
2024-01-16T18:55:15.544Z,16.25
2024-01-16T18:57:45.110Z,16.02
2024-01-16T19:00:18.065Z,15.93
2024-01-16T19:02:47.900Z,11.00
2024-01-16T19:05:16.140Z,14.10
2024-01-16T19:07:45.650Z,15.43
2024-01-16T19:10:16.074Z,14.43
2024-01-16T19:12:48.153Z,15.18
2024-01-16T19:15:21.973Z,13.65
2024-01-16T19:17:51.019Z,16.60
2024-01-16T19:20:26.867Z,16.73
2024-01-16T19:22:57.327Z,17.62
2024-01-16T19:25:30.452Z,18.67
2024-01-16T19:28:01.434Z,10.70
2024-01-16T19:30:30.746Z,13.60
2024-01-16T19:33:03.846Z,11.77
2024-01-16T19:35:32.322Z,13.13
2024-01-16T19:38:01.349Z,11.25
2024-01-16T19:40:30.798Z,13.62
2024-01-16T19:43:04.339Z,12.20
2024-01-16T19:45:32.280Z,9.20
2024-01-16T19:48:00.593Z,9.48
2024-01-16T19:50:30.967Z,12.48
2024-01-16T19:53:05.021Z,11.10
2024-01-16T19:55:33.297Z,9.48
2024-01-16T19:58:06.942Z,11.32
2024-01-16T20:00:34.935Z,10.02
2024-01-16T20:03:10.660Z,9.95
2024-01-16T20:05:42.142Z,8.63
2024-01-16T20:08:14.128Z,11.35
2024-01-16T20:10:42.549Z,11.60
2024-01-16T20:13:10.486Z,11.00
2024-01-16T20:15:41.189Z,9.30
2024-01-16T20:18:11.206Z,9.07
2024-01-16T20:20:39.262Z,9.43
2024-01-16T20:23:07.336Z,14.18
2024-01-16T20:25:35.320Z,9.52
2024-01-16T20:28:06.227Z,12.23
2024-01-16T20:30:35.537Z,13.55
2024-01-16T20:33:03.516Z,12.00
2024-01-16T20:35:31.543Z,12.30
2024-01-16T20:37:59.472Z,13.15
2024-01-16T20:40:27.393Z,13.45
2024-01-16T20:42:58.571Z,15.63
2024-01-16T20:45:26.543Z,15.70
2024-01-16T20:47:56.547Z,16.12
2024-01-16T20:50:24.561Z,16.12
2024-01-16T20:52:52.732Z,17.17
2024-01-16T20:55:20.703Z,17.02
2024-01-16T20:57:49.679Z,18.75
2024-01-16T21:00:18.611Z,15.35
2024-01-16T21:02:46.715Z,22.15
2024-01-16T21:05:14.814Z,22.33
2024-01-16T21:07:43.422Z,18.45
2024-01-16T21:10:11.914Z,16.25
2024-01-16T21:12:40.481Z,18.50
2024-01-16T21:15:08.866Z,17.62
2024-01-16T21:17:37.056Z,13.32
2024-01-16T21:20:08.263Z,15.25
2024-01-16T21:22:37.154Z,13.35
2024-01-16T21:25:07.301Z,11.90
2024-01-16T21:27:35.485Z,10.25
2024-01-16T21:30:03.790Z,14.07
2024-01-16T21:32:32.191Z,19.30
2024-01-16T21:35:00.884Z,13.05
2024-01-16T21:37:28.956Z,12.35
2024-01-16T21:39:56.970Z,12.00
2024-01-16T21:42:25.026Z,12.43
2024-01-16T21:44:54.895Z,12.40
2024-01-16T21:47:23.434Z,14.57
2024-01-16T21:49:52.763Z,14.23
2024-01-16T21:52:22.297Z,15.18
2024-01-16T21:54:51.237Z,13.80
2024-01-16T21:57:19.292Z,15.68
2024-01-16T21:59:47.832Z,12.07
2024-01-16T22:02:16.958Z,11.60
2024-01-16T22:04:45.093Z,13.10
2024-01-16T22:07:13.042Z,11.60
2024-01-16T22:09:41.293Z,12.73
2024-01-16T22:12:10.902Z,12.05
2024-01-16T22:14:40.012Z,9.85
2024-01-16T22:17:08.453Z,12.55
2024-01-16T22:19:36.432Z,10.32
2024-01-16T22:22:04.505Z,9.35
2024-01-16T22:24:32.566Z,10.20
2024-01-16T22:27:00.611Z,11.50
2024-01-16T22:29:28.751Z,13.90
2024-01-16T22:31:57.367Z,13.43
2024-01-16T22:34:26.679Z,10.70
2024-01-16T22:36:54.820Z,13.90
2024-01-16T22:39:26.266Z,12.10
2024-01-16T22:41:54.303Z,10.40
2024-01-16T22:44:24.247Z,12.00
2024-01-16T22:46:52.456Z,11.90
2024-01-16T22:49:20.422Z,11.50
2024-01-16T22:51:49.756Z,12.52
2024-01-16T22:54:17.766Z,12.32
2024-01-16T22:56:45.835Z,11.60
2024-01-16T22:59:13.986Z,11.98
2024-01-16T23:01:41.969Z,14.87
2024-01-16T23:04:10.027Z,13.18
2024-01-16T23:06:38.194Z,10.57
2024-01-16T23:09:08.005Z,14.93
2024-01-16T23:11:36.028Z,13.30
2024-01-16T23:14:04.475Z,14.77
2024-01-16T23:16:32.482Z,12.27
2024-01-16T23:19:00.671Z,10.80
2024-01-16T23:21:29.415Z,14.68
2024-01-16T23:23:57.850Z,13.10
2024-01-16T23:26:25.932Z,13.98
2024-01-16T23:28:53.942Z,11.85
2024-01-16T23:31:22.035Z,12.57
2024-01-16T23:33:50.215Z,16.62
2024-01-16T23:36:18.916Z,13.50
2024-01-16T23:38:46.929Z,12.90
2024-01-16T23:41:14.840Z,14.10
2024-01-16T23:43:44.757Z,11.40
2024-01-16T23:46:12.950Z,17.90
2024-01-16T23:48:41.123Z,11.48
2024-01-16T23:51:09.142Z,16.90
2024-01-16T23:53:37.872Z,13.95
2024-01-16T23:56:06.345Z,11.23
2024-01-16T23:58:34.309Z,15.20
